createdAt,value
2022-09-07T00:00:28.095Z,3.23
2022-09-07T00:02:56.480Z,3.27
2022-09-07T00:05:25.015Z,2.93
2022-09-07T00:07:53.513Z,2.90
2022-09-07T00:10:24.080Z,2.40
2022-09-07T00:12:52.714Z,2.30
2022-09-07T00:15:21.121Z,2.00
2022-09-07T00:17:49.624Z,2.03
2022-09-07T00:20:18.240Z,2.43
2022-09-07T00:22:46.649Z,2.20
2022-09-07T00:25:15.167Z,1.80
2022-09-07T00:27:45.433Z,2.17
2022-09-07T00:30:14.141Z,2.20
2022-09-07T00:32:42.689Z,2.00
2022-09-07T00:35:12.692Z,2.17
2022-09-07T00:37:41.041Z,2.37
2022-09-07T00:40:10.126Z,2.27
2022-09-07T00:42:38.698Z,2.40
2022-09-07T00:45:11.879Z,2.47
2022-09-07T00:47:42.380Z,2.50
2022-09-07T00:50:12.428Z,2.40
2022-09-07T00:52:40.848Z,2.83
2022-09-07T00:55:10.099Z,2.40
2022-09-07T00:57:38.650Z,2.47
2022-09-07T01:00:07.598Z,2.37
2022-09-07T01:02:37.499Z,2.30
2022-09-07T01:05:09.477Z,2.40
2022-09-07T01:07:38.449Z,1.93
2022-09-07T01:10:07.712Z,2.30
2022-09-07T01:12:36.100Z,2.50
2022-09-07T01:15:05.027Z,2.30
2022-09-07T01:17:35.471Z,2.00
2022-09-07T01:20:14.126Z,2.27
2022-09-07T01:22:57.612Z,2.23
2022-09-07T01:25:28.733Z,2.40
2022-09-07T01:28:04.231Z,2.70
2022-09-07T01:30:32.828Z,2.63
2022-09-07T01:33:07.441Z,2.60
2022-09-07T01:35:40.673Z,2.80
2022-09-07T01:38:10.376Z,2.50
2022-09-07T01:40:41.224Z,3.10
2022-09-07T01:43:11.804Z,2.83
2022-09-07T01:45:41.434Z,2.90
2022-09-07T01:48:10.321Z,2.87
2022-09-07T01:50:40.035Z,2.97
2022-09-07T01:53:09.370Z,2.87
2022-09-07T01:55:38.624Z,2.70
2022-09-07T01:58:09.112Z,2.90
2022-09-07T02:00:39.594Z,2.87
2022-09-07T02:03:08.778Z,2.80
2022-09-07T02:05:37.747Z,2.83
2022-09-07T02:08:07.479Z,2.90
2022-09-07T02:10:36.846Z,3.00
2022-09-07T02:13:06.888Z,2.93
2022-09-07T02:15:40.338Z,3.10
2022-09-07T02:18:09.063Z,3.20
2022-09-07T02:20:38.415Z,3.20
2022-09-07T02:23:07.965Z,2.70
2022-09-07T02:25:38.918Z,2.77
2022-09-07T02:28:08.731Z,3.13
2022-09-07T02:30:37.145Z,3.00
2022-09-07T02:33:06.955Z,2.93
2022-09-07T02:35:35.441Z,3.80
2022-09-07T02:38:04.572Z,3.20
2022-09-07T02:40:33.016Z,2.93
2022-09-07T02:43:01.682Z,3.20
2022-09-07T02:45:30.212Z,2.80
2022-09-07T02:48:02.328Z,2.80
2022-09-07T02:50:38.778Z,2.83
2022-09-07T02:53:11.688Z,3.17
2022-09-07T02:55:42.329Z,3.03
2022-09-07T02:58:13.594Z,2.97
2022-09-07T03:00:43.974Z,3.40
2022-09-07T03:03:15.780Z,3.30
2022-09-07T03:05:46.409Z,3.17
2022-09-07T03:08:16.087Z,3.30
2022-09-07T03:10:44.533Z,3.40
2022-09-07T03:13:21.124Z,3.63
2022-09-07T03:15:52.445Z,2.87
2022-09-07T03:18:23.658Z,3.10
2022-09-07T03:20:53.503Z,3.37
2022-09-07T03:23:25.211Z,3.27
2022-09-07T03:25:54.318Z,3.43
2022-09-07T03:28:22.686Z,3.10
2022-09-07T03:30:51.121Z,3.40
2022-09-07T03:33:19.581Z,3.30
2022-09-07T03:35:48.308Z,3.50
2022-09-07T03:38:18.070Z,3.33
2022-09-07T03:40:46.384Z,3.13
2022-09-07T03:43:14.662Z,3.50
2022-09-07T03:45:43.139Z,3.30
2022-09-07T03:48:11.489Z,3.47
2022-09-07T03:50:39.835Z,2.97
2022-09-07T03:53:08.370Z,3.37
2022-09-07T03:55:38.036Z,3.40
2022-09-07T03:58:06.580Z,3.30
2022-09-07T04:00:34.964Z,3.17
2022-09-07T04:03:06.439Z,3.70
2022-09-07T04:05:34.817Z,3.23
2022-09-07T04:08:03.388Z,3.50
2022-09-07T04:10:31.908Z,3.30
2022-09-07T04:13:01.948Z,3.37
2022-09-07T04:15:30.721Z,3.47
2022-09-07T04:17:59.122Z,3.63
2022-09-07T04:20:27.557Z,3.70
2022-09-07T04:22:55.964Z,3.47
2022-09-07T04:25:24.295Z,3.73
2022-09-07T04:27:52.920Z,3.10
2022-09-07T04:30:22.737Z,3.03
2022-09-07T04:32:51.388Z,2.80
2022-09-07T04:35:19.739Z,2.70
2022-09-07T04:37:48.189Z,3.00
2022-09-07T04:40:16.648Z,4.00
2022-09-07T04:42:45.100Z,4.73
2022-09-07T04:45:13.644Z,5.00
2022-09-07T04:47:43.336Z,5.40
2022-09-07T04:50:11.980Z,5.87
2022-09-07T04:52:40.355Z,5.70
2022-09-07T04:55:09.038Z,6.10
2022-09-07T04:57:37.478Z,6.23
2022-09-07T05:00:07.997Z,6.27
2022-09-07T05:02:36.451Z,6.40
2022-09-07T05:05:06.540Z,7.80
2022-09-07T05:07:34.877Z,7.30
2022-09-07T05:10:03.350Z,7.43
2022-09-07T05:12:31.718Z,8.07
2022-09-07T05:15:00.147Z,7.83
2022-09-07T05:17:31.105Z,7.07
2022-09-07T05:19:59.603Z,7.17
2022-09-07T05:22:29.301Z,7.17
2022-09-07T05:24:57.606Z,7.10
2022-09-07T05:27:25.959Z,7.23
2022-09-07T05:30:02.317Z,7.00
2022-09-07T05:32:32.064Z,7.37
2022-09-07T05:35:00.456Z,7.37
2022-09-07T05:37:30.127Z,7.00
2022-09-07T05:39:58.472Z,6.47
2022-09-07T05:42:27.014Z,6.63
2022-09-07T05:44:55.346Z,6.30
2022-09-07T05:47:23.750Z,6.67
2022-09-07T05:49:57.706Z,6.90
2022-09-07T05:52:26.163Z,6.77
2022-09-07T05:55:07.429Z,7.33
2022-09-07T05:57:44.199Z,7.07
2022-09-07T06:00:14.377Z,7.67
2022-09-07T06:02:42.794Z,7.50
2022-09-07T06:05:12.263Z,7.83
2022-09-07T06:07:40.540Z,7.90
2022-09-07T06:12:59.009Z,7.17
2022-09-07T06:15:27.411Z,7.50
2022-09-07T06:17:55.818Z,7.40
2022-09-07T06:20:24.590Z,7.40
2022-09-07T06:22:53.087Z,7.53
2022-09-07T06:25:22.863Z,8.67
2022-09-07T06:27:51.996Z,8.77
2022-09-07T06:30:20.406Z,9.50
2022-09-07T06:32:48.819Z,8.27
2022-09-07T06:35:17.505Z,8.80
2022-09-07T06:37:46.042Z,9.60
2022-09-07T06:40:14.491Z,9.03
2022-09-07T06:42:44.295Z,9.10
2022-09-07T06:45:12.955Z,10.10
2022-09-07T06:47:41.413Z,10.03
2022-09-07T06:50:10.600Z,9.97
2022-09-07T06:55:28.700Z,9.80
2022-09-07T06:57:58.402Z,9.93
2022-09-07T07:00:26.852Z,9.73
2022-09-07T07:02:55.296Z,9.33
2022-09-07T07:05:23.665Z,9.00
2022-09-07T07:07:51.992Z,8.60
2022-09-07T07:10:24.490Z,8.63
2022-09-07T07:12:57.528Z,8.50
2022-09-07T07:15:34.247Z,8.27
2022-09-07T07:18:14.836Z,8.27
2022-09-07T07:20:48.516Z,8.23
2022-09-07T07:23:16.896Z,7.97
2022-09-07T07:25:46.218Z,8.27
2022-09-07T07:31:12.053Z,7.43
2022-09-07T07:33:46.323Z,7.23
2022-09-07T07:36:15.392Z,7.60
2022-09-07T07:38:59.827Z,7.40
2022-09-07T07:44:18.842Z,7.67
2022-09-07T07:46:50.372Z,6.97
2022-09-07T07:49:18.880Z,7.50
2022-09-07T07:54:36.800Z,7.50
2022-09-07T07:57:05.157Z,8.87
2022-09-07T07:59:33.501Z,10.07
2022-09-07T08:02:05.271Z,10.10
2022-09-07T08:04:34.137Z,10.80
2022-09-07T08:07:08.316Z,11.00
2022-09-07T08:09:38.290Z,12.73
2022-09-07T08:12:06.629Z,14.33
2022-09-07T08:14:36.570Z,14.47
2022-09-07T08:17:06.258Z,14.80
2022-09-07T08:19:34.633Z,14.07
2022-09-07T08:22:03.897Z,14.47
2022-09-07T08:24:35.062Z,13.60
2022-09-07T08:27:03.439Z,12.60
2022-09-07T08:29:34.594Z,13.43
2022-09-07T08:32:08.540Z,13.03
2022-09-07T08:34:37.952Z,13.40
2022-09-07T08:37:06.292Z,13.07
2022-09-07T08:39:35.851Z,13.30
2022-09-07T08:42:17.252Z,12.43
2022-09-07T08:44:46.426Z,12.10
2022-09-07T08:47:17.004Z,12.23
2022-09-07T08:49:52.479Z,11.30
2022-09-07T08:52:24.733Z,10.47
2022-09-07T08:54:55.505Z,9.87
2022-09-07T08:57:24.828Z,9.10
2022-09-07T09:00:05.172Z,9.60
2022-09-07T09:02:42.437Z,9.67
2022-09-07T09:05:18.029Z,9.23
2022-09-07T09:07:49.515Z,8.87
2022-09-07T09:10:18.939Z,8.00
2022-09-07T09:12:55.140Z,7.20
2022-09-07T09:15:26.395Z,8.83
2022-09-07T09:17:58.258Z,7.30
2022-09-07T09:20:26.856Z,6.50
2022-09-07T09:22:56.132Z,6.57
2022-09-07T09:25:24.739Z,6.00
2022-09-07T09:27:53.145Z,5.90
2022-09-07T09:30:21.992Z,5.30
2022-09-07T09:32:50.741Z,4.43
2022-09-07T09:35:21.820Z,3.87
2022-09-07T09:37:50.207Z,3.73
2022-09-07T09:40:22.654Z,3.50
2022-09-07T09:42:51.508Z,3.27
2022-09-07T09:45:21.384Z,3.60
2022-09-07T09:47:50.770Z,3.57
2022-09-07T09:53:23.995Z,3.53
2022-09-07T09:55:53.391Z,3.03
2022-09-07T10:01:26.670Z,3.40
2022-09-07T10:04:05.617Z,3.13
2022-09-07T10:06:39.139Z,3.33
2022-09-07T10:09:07.523Z,3.33
2022-09-07T10:14:31.962Z,3.27
2022-09-07T10:17:00.258Z,3.00
2022-09-07T10:19:31.575Z,3.23
2022-09-07T10:22:04.552Z,3.27
2022-09-07T10:24:33.974Z,3.67
2022-09-07T10:27:02.367Z,3.77
2022-09-07T10:29:31.461Z,3.63
2022-09-07T10:32:18.361Z,3.77
2022-09-07T10:34:50.008Z,4.20
2022-09-07T10:37:21.774Z,4.00
2022-09-07T10:39:58.245Z,4.20
2022-09-07T10:42:29.659Z,3.57
2022-09-07T10:45:01.671Z,3.70
2022-09-07T10:47:32.431Z,3.20
2022-09-07T10:52:56.260Z,3.27
2022-09-07T10:55:26.450Z,3.20
2022-09-07T10:57:58.142Z,3.30
2022-09-07T11:00:26.696Z,3.13
2022-09-07T11:05:52.463Z,2.40
2022-09-07T11:08:24.790Z,2.40
2022-09-07T11:10:54.082Z,2.67
2022-09-07T11:13:23.228Z,2.13
2022-09-07T11:15:52.355Z,2.90
2022-09-07T11:18:21.951Z,2.70
2022-09-07T11:20:55.000Z,2.67
2022-09-07T11:23:25.795Z,2.23
2022-09-07T11:25:56.053Z,2.90
2022-09-07T11:28:24.921Z,2.80
2022-09-07T11:31:00.369Z,2.77
2022-09-07T11:33:29.076Z,2.77
2022-09-07T11:35:59.682Z,2.50
2022-09-07T11:38:30.368Z,1.83
2022-09-07T11:41:10.127Z,1.90
2022-09-07T11:43:40.633Z,2.27
2022-09-07T11:46:09.703Z,2.10
2022-09-07T11:48:38.514Z,2.27
2022-09-07T11:51:07.934Z,2.30
2022-09-07T11:53:38.428Z,2.40
2022-09-07T11:56:07.665Z,2.50
2022-09-07T11:58:39.911Z,2.00
2022-09-07T12:01:12.769Z,2.27
2022-09-07T12:03:50.300Z,2.70
2022-09-07T12:06:33.172Z,2.40
2022-09-07T12:09:06.234Z,2.30
2022-09-07T12:11:51.230Z,2.00
2022-09-07T12:14:30.649Z,2.40
2022-09-07T12:17:02.575Z,2.40
2022-09-07T12:19:30.932Z,2.33
2022-09-07T12:21:59.594Z,2.30
2022-09-07T12:24:42.282Z,1.93
2022-09-07T12:27:11.637Z,2.50
2022-09-07T12:29:45.202Z,2.33
2022-09-07T12:35:02.174Z,2.60
2022-09-07T12:37:37.529Z,2.90
2022-09-07T12:40:24.277Z,2.87
2022-09-07T12:42:55.590Z,2.60
2022-09-07T12:45:49.640Z,2.90
2022-09-07T12:48:22.853Z,2.70
2022-09-07T12:50:51.970Z,2.80
2022-09-07T12:53:26.303Z,2.90
2022-09-07T12:56:18.314Z,2.60
2022-09-07T12:58:51.122Z,2.50
2022-09-07T13:01:23.289Z,2.87
2022-09-07T13:03:55.556Z,2.37
2022-09-07T13:09:23.417Z,2.90
2022-09-07T13:12:04.779Z,2.77
2022-09-07T13:14:34.790Z,2.47
2022-09-07T13:17:22.267Z,3.00
2022-09-07T13:20:07.310Z,2.40
2022-09-07T13:22:54.775Z,2.90
2022-09-07T13:25:37.966Z,2.63
2022-09-07T13:28:06.278Z,3.20
2022-09-07T13:30:45.836Z,2.07
2022-09-07T13:33:32.539Z,2.43
2022-09-07T13:36:01.975Z,2.00
2022-09-07T13:38:30.394Z,2.13
2022-09-07T13:41:03.161Z,2.13
2022-09-07T13:43:31.610Z,2.57
2022-09-07T13:46:02.628Z,2.60
2022-09-07T13:48:32.747Z,2.73
2022-09-07T13:51:02.121Z,2.13
2022-09-07T13:53:35.908Z,2.40
2022-09-07T13:56:14.732Z,2.17
2022-09-07T13:58:43.342Z,2.33
2022-09-07T14:01:17.847Z,2.07
2022-09-07T14:03:47.775Z,2.30
2022-09-07T14:06:28.170Z,2.20
2022-09-07T14:08:57.015Z,2.30
2022-09-07T14:11:26.156Z,2.30
2022-09-07T14:14:24.401Z,2.70
2022-09-07T14:16:56.844Z,1.97
2022-09-07T14:19:25.580Z,1.80
2022-09-07T14:22:00.575Z,2.00
2022-09-07T14:24:31.003Z,1.60
2022-09-07T14:26:59.388Z,1.70
2022-09-07T14:29:29.968Z,2.00
2022-09-07T14:31:59.797Z,2.37
2022-09-07T14:34:29.837Z,1.90
2022-09-07T14:37:02.174Z,1.77
2022-09-07T14:39:33.244Z,1.80
2022-09-07T14:42:01.659Z,1.60
2022-09-07T14:44:30.757Z,1.80
2022-09-07T14:47:00.875Z,2.03
2022-09-07T14:49:32.562Z,1.80
2022-09-07T14:52:01.953Z,1.90
2022-09-07T14:54:31.253Z,1.90
2022-09-07T14:57:01.835Z,1.63
2022-09-07T14:59:35.685Z,1.80
2022-09-07T15:02:22.051Z,2.00
2022-09-07T15:04:51.025Z,2.27
2022-09-07T15:07:29.177Z,1.97
2022-09-07T15:09:57.438Z,1.67
2022-09-07T15:12:38.282Z,2.07
2022-09-07T15:15:14.014Z,2.23
2022-09-07T15:17:44.110Z,2.30
2022-09-07T15:20:31.337Z,2.30
2022-09-07T15:22:59.829Z,1.93
2022-09-07T15:25:28.837Z,1.90
2022-09-07T15:27:57.156Z,1.80
2022-09-07T15:30:27.206Z,2.00
2022-09-07T15:32:57.695Z,2.03
2022-09-07T15:35:26.129Z,1.80
2022-09-07T15:38:02.780Z,2.17
2022-09-07T15:40:35.798Z,2.13
2022-09-07T15:43:16.473Z,2.20
2022-09-07T15:45:48.678Z,2.13
2022-09-07T15:48:19.681Z,2.10
2022-09-07T15:50:48.009Z,2.30
2022-09-07T15:56:04.815Z,2.37
2022-09-07T15:58:33.299Z,2.00
2022-09-07T16:03:53.751Z,2.47
2022-09-07T16:06:22.428Z,2.40
2022-09-07T16:08:51.836Z,2.03
2022-09-07T16:11:23.913Z,2.17
2022-09-07T16:13:57.348Z,1.90
2022-09-07T16:17:26.592Z,2.27
2022-09-07T16:19:20.497Z,2.00
2022-09-07T16:21:49.253Z,2.00
2022-09-07T16:24:17.994Z,1.73
2022-09-07T16:26:46.346Z,2.13
2022-09-07T16:29:15.415Z,2.10
2022-09-07T16:34:33.603Z,2.17
2022-09-07T16:37:01.906Z,2.23
2022-09-07T16:39:30.297Z,2.33
2022-09-07T16:42:00.046Z,2.30
2022-09-07T16:44:28.579Z,1.83
2022-09-07T16:46:56.867Z,2.10
2022-09-07T16:49:25.167Z,2.00
2022-09-07T16:51:54.898Z,2.40
2022-09-07T16:54:23.217Z,2.30
2022-09-07T16:56:52.603Z,2.70
2022-09-07T16:59:26.164Z,2.20
2022-09-07T17:01:54.555Z,2.97
2022-09-07T17:04:23.170Z,2.20
2022-09-07T17:06:52.549Z,2.50
2022-09-07T17:09:26.391Z,2.10
2022-09-07T17:11:54.653Z,2.10
2022-09-07T17:14:23.027Z,2.10
2022-09-07T17:16:51.484Z,2.20
2022-09-07T17:19:29.436Z,1.73
2022-09-07T17:21:59.677Z,1.90
2022-09-07T17:24:32.332Z,1.93
2022-09-07T17:27:00.779Z,2.40
2022-09-07T17:29:30.744Z,1.93
2022-09-07T17:34:47.673Z,2.17
2022-09-07T17:37:15.945Z,2.17
2022-09-07T17:39:45.691Z,2.23
2022-09-07T17:42:14.294Z,2.20
2022-09-07T17:44:42.980Z,2.03
2022-09-07T17:47:11.290Z,2.10
2022-09-07T17:49:39.529Z,2.20
2022-09-07T17:52:08.681Z,2.10
2022-09-07T17:54:37.145Z,2.40
2022-09-07T17:57:07.095Z,2.60
2022-09-07T18:02:23.579Z,2.40
2022-09-07T18:04:58.279Z,2.40
2022-09-07T18:07:29.028Z,2.30
2022-09-07T18:10:01.735Z,2.20
2022-09-07T18:12:32.762Z,2.47
2022-09-07T18:15:01.117Z,2.40
2022-09-07T18:17:29.486Z,2.20
2022-09-07T18:19:57.944Z,2.80
2022-09-07T18:22:26.594Z,2.50
2022-09-07T18:24:54.979Z,2.20
2022-09-07T18:27:25.458Z,2.40
2022-09-07T18:29:55.135Z,2.47
2022-09-07T18:32:23.479Z,2.77
2022-09-07T18:34:52.012Z,2.40
2022-09-07T18:37:20.334Z,3.10
2022-09-07T18:39:48.833Z,2.53
2022-09-07T18:42:17.191Z,2.60
2022-09-07T18:47:35.738Z,2.60
2022-09-07T18:50:06.634Z,3.00
2022-09-07T18:55:24.473Z,3.00
2022-09-07T18:57:52.782Z,3.23
2022-09-07T19:00:21.044Z,3.50
2022-09-07T19:02:52.398Z,3.03
2022-09-07T19:08:09.720Z,2.73
2022-09-07T19:10:38.345Z,3.40
2022-09-07T19:13:07.048Z,2.93
2022-09-07T19:15:37.407Z,3.40
2022-09-07T19:18:07.723Z,3.10
2022-09-07T19:20:36.149Z,3.70
2022-09-07T19:23:04.707Z,2.87
2022-09-07T19:25:32.996Z,3.10
2022-09-07T19:28:01.290Z,3.47
2022-09-07T19:30:30.488Z,2.93
2022-09-07T19:33:03.945Z,3.13
2022-09-07T19:35:37.342Z,3.13
2022-09-07T19:38:05.857Z,2.83
2022-09-07T19:40:34.502Z,2.90
2022-09-07T19:43:02.893Z,3.30
2022-09-07T19:45:31.683Z,3.73
2022-09-07T19:48:00.192Z,3.50
2022-09-07T19:50:28.783Z,3.30
2022-09-07T19:52:58.800Z,3.30
2022-09-07T19:55:27.427Z,6.20
2022-09-07T19:57:55.901Z,4.93
2022-09-07T20:00:24.712Z,4.20
2022-09-07T20:02:54.154Z,4.77
2022-09-07T20:05:23.761Z,4.67
2022-09-07T20:07:52.105Z,4.43
2022-09-07T20:10:21.901Z,4.40
2022-09-07T20:12:50.188Z,4.07
2022-09-07T20:15:18.459Z,4.03
2022-09-07T20:17:47.463Z,4.17
2022-09-07T20:20:15.846Z,3.97
2022-09-07T20:22:44.156Z,4.33
2022-09-07T20:25:13.382Z,4.07
2022-09-07T20:27:43.791Z,4.60
2022-09-07T20:30:12.790Z,4.30
2022-09-07T20:32:41.094Z,4.13
2022-09-07T20:35:09.883Z,4.33
2022-09-07T20:37:38.414Z,3.80
2022-09-07T20:40:07.625Z,4.53
2022-09-07T20:42:35.945Z,4.13
2022-09-07T20:45:05.895Z,4.57
2022-09-07T20:47:34.161Z,4.00
2022-09-07T20:50:08.541Z,5.13
2022-09-07T20:52:36.853Z,7.73
2022-09-07T20:55:05.392Z,6.77
2022-09-07T20:57:33.664Z,6.87
2022-09-07T21:00:01.917Z,5.37
2022-09-07T21:02:31.715Z,5.07
2022-09-07T21:05:00.065Z,4.80
2022-09-07T21:07:28.546Z,5.13
2022-09-07T21:09:56.905Z,4.90
2022-09-07T21:12:25.260Z,5.13
2022-09-07T21:14:53.752Z,5.17
2022-09-07T21:17:21.988Z,4.40
2022-09-07T21:19:51.806Z,5.03
2022-09-07T21:22:20.274Z,4.67
2022-09-07T21:24:48.652Z,4.40
2022-09-07T21:27:16.931Z,4.43
2022-09-07T21:29:45.262Z,4.13
2022-09-07T21:32:13.560Z,4.70
2022-09-07T21:34:41.884Z,3.53
2022-09-07T21:37:11.653Z,3.87
2022-09-07T21:39:40.086Z,3.73
2022-09-07T21:42:08.572Z,3.53
2022-09-07T21:44:36.960Z,3.67
2022-09-07T21:47:12.148Z,4.07
2022-09-07T21:49:40.419Z,3.77
2022-09-07T21:52:08.798Z,4.30
2022-09-07T21:54:39.176Z,4.20
2022-09-07T21:57:07.399Z,4.83
2022-09-07T21:59:35.953Z,4.33
2022-09-07T22:02:04.377Z,4.47
2022-09-07T22:04:32.683Z,5.03
2022-09-07T22:07:00.965Z,4.03
2022-09-07T22:09:29.237Z,4.50
2022-09-07T22:11:59.998Z,4.33
2022-09-07T22:14:28.974Z,4.00
2022-09-07T22:16:57.334Z,4.00
2022-09-07T22:19:25.688Z,3.83
2022-09-07T22:21:54.599Z,4.00
2022-09-07T22:24:22.910Z,3.63
2022-09-07T22:26:51.657Z,4.00
2022-09-07T22:29:21.297Z,3.30
2022-09-07T22:31:49.767Z,3.40
2022-09-07T22:34:18.145Z,3.30
2022-09-07T22:36:46.543Z,3.53
2022-09-07T22:39:15.395Z,3.53
2022-09-07T22:41:47.114Z,3.43
2022-09-07T22:44:16.038Z,3.20
2022-09-07T22:46:46.056Z,4.00
2022-09-07T22:49:15.059Z,3.47
2022-09-07T22:51:43.384Z,3.23
2022-09-07T22:54:11.812Z,3.10
2022-09-07T22:56:40.239Z,3.20
2022-09-07T22:59:09.188Z,3.10
2022-09-07T23:01:37.531Z,2.87
2022-09-07T23:04:07.562Z,3.20
2022-09-07T23:06:36.636Z,3.00
2022-09-07T23:09:06.180Z,2.80
2022-09-07T23:11:34.486Z,2.70
2022-09-07T23:14:03.459Z,3.07
2022-09-07T23:16:31.778Z,2.80
2022-09-07T23:19:00.328Z,2.73
2022-09-07T23:21:30.395Z,2.50
2022-09-07T23:23:59.656Z,2.70
2022-09-07T23:26:28.511Z,2.67
2022-09-07T23:28:57.209Z,2.77
2022-09-07T23:31:25.646Z,3.03
2022-09-07T23:33:54.141Z,3.00
2022-09-07T23:36:22.561Z,2.50
2022-09-07T23:38:52.253Z,2.63
2022-09-07T23:41:21.165Z,2.90
2022-09-07T23:43:49.490Z,3.10
2022-09-07T23:46:17.878Z,2.90
2022-09-07T23:48:46.233Z,3.17
2022-09-07T23:51:14.539Z,2.80
2022-09-07T23:53:42.890Z,3.67
2022-09-07T23:56:12.599Z,3.27
2022-09-07T23:58:40.957Z,3.37
